createdAt,value
2024-02-11T00:00:55.419Z,10.14
2024-02-11T00:02:28.660Z,10.15
2024-02-11T00:04:02.463Z,10.18
2024-02-11T00:05:37.064Z,10.19
2024-02-11T00:07:09.756Z,10.17
2024-02-11T00:08:43.155Z,10.13
2024-02-11T00:10:17.004Z,10.08
2024-02-11T00:11:50.630Z,10.04
2024-02-11T00:13:24.542Z,10.03
2024-02-11T00:14:58.056Z,10.00
2024-02-11T00:16:31.513Z,10.00
2024-02-11T00:18:06.590Z,9.98
2024-02-11T00:19:40.097Z,9.97
2024-02-11T00:21:12.968Z,9.87
2024-02-11T00:22:46.593Z,10.03
2024-02-11T00:24:20.993Z,10.08
2024-02-11T00:25:54.926Z,10.11
2024-02-11T00:27:29.620Z,10.16
2024-02-11T00:29:02.040Z,10.23
2024-02-11T00:30:39.363Z,10.37
2024-02-11T00:32:13.334Z,10.47
2024-02-11T00:33:47.011Z,10.57
2024-02-11T00:35:20.059Z,10.58
2024-02-11T00:36:53.581Z,10.52
2024-02-11T00:38:25.956Z,10.41
2024-02-11T00:39:59.452Z,10.39
2024-02-11T00:41:32.996Z,10.38
2024-02-11T00:43:08.494Z,10.39
2024-02-11T00:44:42.153Z,10.38
2024-02-11T00:46:16.528Z,10.41
2024-02-11T00:47:50.126Z,10.41
2024-02-11T00:49:23.384Z,10.44
2024-02-11T00:50:55.779Z,10.45
2024-02-11T00:52:29.074Z,10.49
2024-02-11T00:54:04.942Z,10.50
2024-02-11T00:55:38.617Z,10.48
2024-02-11T00:57:11.020Z,10.45
2024-02-11T00:58:45.681Z,10.51
2024-02-11T01:00:19.713Z,10.51
2024-02-11T01:01:52.993Z,10.52
2024-02-11T01:03:26.278Z,10.55
2024-02-11T01:04:58.541Z,10.56
2024-02-11T01:06:32.077Z,10.51
2024-02-11T01:08:05.038Z,10.44
2024-02-11T01:09:38.584Z,10.40
2024-02-11T01:11:10.940Z,10.36
2024-02-11T01:12:45.464Z,10.32
2024-02-11T01:14:20.093Z,10.30
2024-02-11T01:15:53.750Z,10.30
2024-02-11T01:17:28.142Z,10.32
2024-02-11T01:19:02.066Z,10.31
2024-02-11T01:20:34.351Z,10.34
2024-02-11T01:22:07.872Z,10.35
2024-02-11T01:23:40.206Z,10.35
2024-02-11T01:25:21.356Z,10.35
2024-02-11T01:26:54.522Z,10.33
2024-02-11T01:28:29.098Z,10.30
2024-02-11T01:30:04.942Z,10.38
2024-02-11T01:31:38.250Z,10.45
2024-02-11T01:33:13.203Z,10.45
2024-02-11T01:34:45.827Z,10.46
2024-02-11T01:36:19.164Z,10.44
2024-02-11T01:37:51.460Z,10.45
2024-02-11T01:39:24.781Z,10.42
2024-02-11T01:40:58.746Z,10.41
2024-02-11T01:42:32.929Z,10.41
2024-02-11T01:44:06.592Z,10.36
2024-02-11T01:45:40.352Z,10.36
2024-02-11T01:47:13.974Z,10.28
2024-02-11T01:48:46.706Z,10.26
2024-02-11T01:50:22.425Z,10.20
2024-02-11T01:51:57.212Z,10.23
2024-02-11T01:53:31.154Z,10.35
2024-02-11T01:55:05.741Z,10.33
2024-02-11T01:56:40.749Z,10.38
2024-02-11T01:58:14.992Z,10.41
2024-02-11T01:59:48.806Z,10.33
2024-02-11T02:01:22.860Z,10.25
2024-02-11T02:02:58.129Z,10.18
2024-02-11T02:04:30.914Z,10.12
2024-02-11T02:06:05.729Z,10.14
2024-02-11T02:07:39.712Z,10.14
2024-02-11T02:09:13.746Z,10.16
2024-02-11T02:10:46.845Z,10.19
2024-02-11T02:12:21.672Z,10.15
2024-02-11T02:13:54.115Z,10.32
2024-02-11T02:15:27.747Z,10.37
2024-02-11T02:17:01.705Z,10.39
2024-02-11T02:18:36.457Z,10.46
2024-02-11T02:20:09.868Z,10.55
2024-02-11T02:21:48.909Z,10.52
2024-02-11T02:23:22.349Z,10.54
2024-02-11T02:24:56.868Z,10.55
2024-02-11T02:26:30.055Z,10.54
2024-02-11T02:28:06.838Z,10.51
2024-02-11T02:29:40.509Z,10.31
2024-02-11T02:31:12.818Z,10.52
2024-02-11T02:32:47.552Z,10.51
2024-02-11T02:34:20.800Z,10.54
2024-02-11T02:35:55.643Z,10.52
2024-02-11T02:37:30.591Z,10.51
2024-02-11T02:39:04.075Z,10.50
2024-02-11T02:40:37.523Z,10.44
2024-02-11T02:42:13.543Z,10.48
2024-02-11T02:43:49.098Z,10.48
2024-02-11T02:45:22.460Z,10.45
2024-02-11T02:46:54.698Z,10.42
2024-02-11T02:48:30.167Z,10.39
2024-02-11T02:50:05.335Z,10.42
2024-02-11T02:51:40.433Z,10.48
2024-02-11T02:53:14.782Z,10.51
2024-02-11T02:54:48.271Z,10.86
2024-02-11T02:56:25.033Z,10.97
2024-02-11T02:57:57.746Z,11.06
2024-02-11T02:59:31.120Z,11.15
2024-02-11T03:01:05.875Z,11.16
2024-02-11T03:02:40.424Z,11.22
2024-02-11T03:04:13.312Z,11.20
2024-02-11T03:05:47.412Z,11.18
2024-02-11T03:07:19.630Z,11.13
2024-02-11T03:08:54.516Z,11.06
2024-02-11T03:10:27.059Z,10.97
2024-02-11T03:12:00.387Z,10.76
2024-02-11T03:13:32.774Z,10.89
2024-02-11T03:15:08.552Z,10.96
2024-02-11T03:16:41.967Z,10.84
2024-02-11T03:18:15.426Z,10.77
2024-02-11T03:19:48.408Z,10.79
2024-02-11T03:21:22.307Z,10.84
2024-02-11T03:22:55.027Z,10.90
2024-02-11T03:24:30.130Z,10.92
2024-02-11T03:26:02.691Z,10.86
2024-02-11T03:27:36.878Z,10.88
2024-02-11T03:31:00.707Z,10.96
2024-02-11T03:32:33.217Z,10.98
2024-02-11T03:34:07.575Z,11.10
2024-02-11T03:35:43.244Z,11.16
2024-02-11T03:37:18.165Z,11.20
2024-02-11T03:38:50.500Z,11.20
2024-02-11T03:40:26.255Z,11.18
2024-02-11T03:41:58.450Z,11.15
2024-02-11T03:43:31.666Z,11.14
2024-02-11T03:45:05.742Z,11.13
2024-02-11T03:46:39.340Z,11.13
2024-02-11T03:48:13.785Z,11.10
2024-02-11T03:49:46.139Z,11.09
2024-02-11T03:51:19.975Z,11.06
2024-02-11T03:52:53.424Z,11.01
2024-02-11T03:54:25.850Z,11.04
2024-02-11T03:56:00.457Z,10.98
2024-02-11T03:57:33.454Z,10.91
2024-02-11T03:59:06.844Z,10.79
2024-02-11T04:00:39.387Z,10.70
2024-02-11T04:02:12.846Z,10.65
2024-02-11T04:03:45.381Z,10.64
2024-02-11T04:05:21.740Z,10.63
2024-02-11T04:06:55.808Z,10.59
2024-02-11T04:08:28.284Z,10.63
2024-02-11T04:10:10.597Z,10.63
2024-02-11T04:11:44.661Z,10.59
2024-02-11T04:13:25.192Z,10.55
2024-02-11T04:14:59.782Z,10.50
2024-02-11T04:16:35.023Z,10.50
2024-02-11T04:18:12.501Z,10.38
2024-02-11T04:19:46.236Z,10.44
2024-02-11T04:21:21.424Z,10.30
2024-02-11T04:22:56.988Z,10.38
2024-02-11T04:24:29.963Z,10.32
2024-02-11T04:26:08.571Z,10.28
2024-02-11T04:27:42.289Z,10.26
2024-02-11T04:29:15.943Z,10.20
2024-02-11T04:30:48.483Z,10.08
2024-02-11T04:32:23.836Z,10.06
2024-02-11T04:33:57.074Z,10.15
2024-02-11T04:35:29.737Z,10.13
2024-02-11T04:37:03.370Z,10.07
2024-02-11T04:38:36.832Z,10.10
2024-02-11T04:40:11.645Z,10.12
2024-02-11T04:41:45.061Z,10.12
2024-02-11T04:43:19.237Z,10.09
2024-02-11T04:44:52.784Z,9.99
2024-02-11T04:46:27.719Z,9.94
2024-02-11T04:48:01.442Z,9.97
2024-02-11T04:49:36.799Z,10.02
2024-02-11T04:51:10.962Z,10.05
2024-02-11T04:52:49.904Z,10.06
2024-02-11T04:54:26.721Z,10.02
2024-02-11T04:55:59.176Z,9.94
2024-02-11T04:57:36.925Z,10.01
2024-02-11T04:59:13.330Z,10.06
2024-02-11T05:00:47.992Z,10.07
2024-02-11T05:02:21.504Z,10.07
2024-02-11T05:03:53.802Z,10.12
2024-02-11T05:05:30.325Z,10.13
2024-02-11T05:07:05.069Z,10.16
2024-02-11T05:08:39.888Z,10.19
2024-02-11T05:10:12.960Z,10.18
2024-02-11T05:11:46.600Z,10.17
2024-02-11T05:13:18.803Z,10.18
2024-02-11T05:14:53.710Z,10.18
2024-02-11T05:16:29.779Z,10.15
2024-02-11T05:18:02.566Z,10.13
2024-02-11T05:19:35.934Z,10.10
2024-02-11T05:21:08.480Z,10.09
2024-02-11T05:22:45.557Z,10.04
2024-02-11T05:24:21.192Z,10.11
2024-02-11T05:25:53.445Z,10.10
2024-02-11T05:27:27.021Z,10.13
2024-02-11T05:29:04.925Z,10.13
2024-02-11T05:30:48.350Z,10.16
2024-02-11T05:32:23.596Z,10.18
2024-02-11T05:33:57.049Z,10.13
2024-02-11T05:35:31.670Z,10.09
2024-02-11T05:37:08.942Z,10.04
2024-02-11T05:38:42.189Z,10.00
2024-02-11T05:40:14.797Z,9.97
2024-02-11T05:41:48.147Z,9.99
2024-02-11T05:43:21.014Z,10.01
2024-02-11T05:44:54.567Z,9.85
2024-02-11T05:46:28.409Z,9.99
2024-02-11T05:48:02.300Z,9.98
2024-02-11T05:49:35.186Z,10.00
2024-02-11T05:51:08.497Z,10.02
2024-02-11T05:52:41.341Z,9.99
2024-02-11T05:54:18.046Z,9.99
2024-02-11T05:55:51.603Z,10.04
2024-02-11T05:57:25.344Z,10.08
2024-02-11T05:58:58.986Z,10.08
2024-02-11T06:00:32.776Z,10.16
2024-02-11T06:02:07.964Z,10.24
2024-02-11T06:03:41.631Z,10.33
2024-02-11T06:05:14.724Z,10.38
2024-02-11T06:06:48.401Z,10.47
2024-02-11T06:08:22.912Z,10.61
2024-02-11T06:09:55.358Z,10.72
2024-02-11T06:11:29.832Z,10.75
2024-02-11T06:13:03.155Z,10.81
2024-02-11T06:14:36.558Z,10.86
2024-02-11T06:16:08.752Z,11.01
2024-02-11T06:17:44.249Z,11.33
2024-02-11T06:19:16.539Z,11.58
2024-02-11T06:20:50.779Z,11.61
2024-02-11T06:22:25.596Z,11.65
2024-02-11T06:23:58.857Z,11.72
2024-02-11T06:25:32.213Z,11.83
2024-02-11T06:27:05.251Z,11.79
2024-02-11T06:28:40.634Z,11.91
2024-02-11T06:30:13.777Z,11.88
2024-02-11T06:31:50.943Z,11.95
2024-02-11T06:33:26.084Z,12.01
2024-02-11T06:34:58.426Z,12.00
2024-02-11T06:36:37.506Z,11.86
2024-02-11T06:38:10.506Z,12.01
2024-02-11T06:39:45.973Z,11.99
2024-02-11T06:41:19.579Z,12.12
2024-02-11T06:42:53.725Z,12.27
2024-02-11T06:44:27.731Z,12.40
2024-02-11T06:46:01.762Z,12.60
2024-02-11T06:47:36.053Z,12.86
2024-02-11T06:49:11.484Z,13.21
2024-02-11T06:50:45.108Z,13.41
2024-02-11T06:52:18.249Z,13.77
2024-02-11T06:53:51.717Z,14.04
2024-02-11T06:55:24.033Z,14.29
2024-02-11T06:56:57.952Z,14.64
2024-02-11T06:58:34.095Z,14.89
2024-02-11T07:00:10.746Z,15.06
2024-02-11T07:01:43.943Z,15.49
2024-02-11T07:03:19.184Z,15.80
2024-02-11T07:04:56.143Z,15.96
2024-02-11T07:06:29.526Z,16.12
2024-02-11T07:08:01.826Z,16.28
2024-02-11T07:09:35.210Z,16.34
2024-02-11T07:11:09.588Z,16.39
2024-02-11T07:12:46.267Z,16.40
2024-02-11T07:14:20.504Z,16.31
2024-02-11T07:15:52.804Z,16.36
2024-02-11T07:17:27.160Z,16.37
2024-02-11T07:18:59.479Z,16.43
2024-02-11T07:20:35.153Z,16.49
2024-02-11T07:22:07.375Z,16.50
2024-02-11T07:23:41.888Z,16.50
2024-02-11T07:25:18.241Z,16.47
2024-02-11T07:26:51.149Z,16.40
2024-02-11T07:28:24.590Z,16.37
2024-02-11T07:29:57.161Z,16.33
2024-02-11T07:31:30.868Z,16.38
2024-02-11T07:33:04.220Z,16.36
2024-02-11T07:34:38.373Z,16.45
2024-02-11T07:36:12.425Z,16.54
2024-02-11T07:37:46.003Z,16.56
2024-02-11T07:39:18.606Z,16.54
2024-02-11T07:40:51.963Z,16.50
2024-02-11T07:42:27.575Z,16.44
2024-02-11T07:44:05.794Z,16.47
2024-02-11T07:45:40.258Z,16.58
2024-02-11T07:47:13.948Z,16.56
2024-02-11T07:48:47.118Z,16.65
2024-02-11T07:50:20.685Z,16.65
2024-02-11T07:51:57.001Z,16.75
2024-02-11T07:53:29.395Z,16.73
2024-02-11T07:55:04.900Z,16.70
2024-02-11T07:56:38.298Z,16.76
2024-02-11T07:58:11.507Z,16.78
2024-02-11T07:59:43.865Z,16.84
2024-02-11T08:01:17.172Z,16.92
2024-02-11T08:02:52.457Z,17.05
2024-02-11T08:04:26.767Z,17.22
2024-02-11T08:05:59.458Z,17.39
2024-02-11T08:07:34.087Z,17.49
2024-02-11T08:09:10.459Z,17.48
2024-02-11T08:10:42.718Z,17.42
2024-02-11T08:12:16.033Z,17.39
2024-02-11T08:13:51.260Z,17.44
2024-02-11T08:15:24.792Z,17.41
2024-02-11T08:16:58.209Z,17.35
2024-02-11T08:18:30.823Z,17.23
2024-02-11T08:20:04.494Z,17.14
2024-02-11T08:21:38.236Z,17.12
2024-02-11T08:23:11.931Z,17.11
2024-02-11T08:24:45.248Z,17.14
2024-02-11T08:26:18.811Z,17.15
2024-02-11T08:27:51.567Z,17.09
2024-02-11T08:29:24.795Z,17.19
2024-02-11T08:30:57.024Z,17.21
2024-02-11T08:32:30.343Z,17.27
2024-02-11T08:34:02.906Z,17.33
2024-02-11T08:35:36.296Z,17.25
2024-02-11T08:37:09.333Z,17.23
2024-02-11T08:38:44.299Z,17.23
2024-02-11T08:40:16.913Z,17.26
2024-02-11T08:41:50.268Z,17.33
2024-02-11T08:43:23.550Z,17.36
2024-02-11T08:44:55.888Z,17.37
2024-02-11T08:46:29.227Z,17.41
2024-02-11T08:48:01.650Z,17.46
2024-02-11T08:49:35.036Z,17.54
2024-02-11T08:51:08.841Z,17.61
2024-02-11T08:52:41.329Z,17.67
2024-02-11T08:54:16.100Z,17.71
2024-02-11T08:55:49.526Z,17.77
2024-02-11T08:57:24.574Z,17.77
2024-02-11T08:58:58.060Z,17.76
2024-02-11T09:00:31.197Z,17.78
2024-02-11T09:02:04.771Z,17.68
2024-02-11T09:03:39.302Z,17.77
2024-02-11T09:05:12.358Z,17.70
2024-02-11T09:06:47.377Z,17.79
2024-02-11T09:08:26.566Z,17.72
2024-02-11T09:10:00.995Z,17.73
2024-02-11T09:11:34.362Z,17.69
2024-02-11T09:13:07.451Z,17.70
2024-02-11T09:14:41.257Z,17.68
2024-02-11T09:16:14.638Z,17.59
2024-02-11T09:17:48.619Z,17.54
2024-02-11T09:19:22.745Z,17.65
2024-02-11T09:20:56.082Z,17.66
2024-02-11T09:22:28.287Z,17.65
2024-02-11T09:24:01.626Z,17.68
2024-02-11T09:25:35.937Z,17.71
2024-02-11T09:27:12.180Z,17.73
2024-02-11T09:28:45.680Z,17.74
2024-02-11T09:30:19.039Z,17.65
2024-02-11T09:31:52.628Z,17.71
2024-02-11T09:33:26.994Z,17.67
2024-02-11T09:34:59.442Z,17.66
2024-02-11T09:36:34.635Z,17.66
2024-02-11T09:38:07.919Z,17.63
2024-02-11T09:39:40.812Z,17.58
2024-02-11T09:41:15.814Z,17.61
2024-02-11T09:42:50.982Z,17.63
2024-02-11T09:44:28.385Z,17.67
2024-02-11T09:46:02.129Z,17.77
2024-02-11T09:47:38.616Z,17.81
2024-02-11T09:49:16.385Z,17.88
2024-02-11T09:50:49.785Z,17.93
2024-02-11T09:52:23.143Z,17.95
2024-02-11T09:54:01.492Z,18.02
2024-02-11T09:55:34.173Z,18.04
2024-02-11T09:57:27.518Z,18.09
2024-02-11T09:59:00.121Z,17.98
2024-02-11T10:00:33.422Z,17.95
2024-02-11T10:02:13.548Z,18.06
2024-02-11T10:03:51.219Z,18.05
2024-02-11T10:05:25.343Z,18.06
2024-02-11T10:07:02.376Z,18.08
2024-02-11T10:08:35.989Z,18.09
2024-02-11T10:10:10.036Z,18.07
2024-02-11T10:11:42.845Z,17.92
2024-02-11T10:13:21.002Z,18.03
2024-02-11T10:14:54.360Z,18.00
2024-02-11T10:16:29.673Z,17.96
2024-02-11T10:18:05.880Z,17.92
2024-02-11T10:19:39.320Z,17.91
2024-02-11T10:21:13.853Z,17.87
2024-02-11T10:22:46.408Z,17.83
2024-02-11T10:24:20.374Z,17.85
2024-02-11T10:25:52.785Z,17.80
2024-02-11T10:27:26.080Z,17.71
2024-02-11T10:29:01.039Z,17.77
2024-02-11T10:30:36.068Z,17.75
2024-02-11T10:32:14.848Z,17.76
2024-02-11T10:33:48.488Z,17.73
2024-02-11T10:35:21.568Z,17.77
2024-02-11T10:36:55.223Z,17.77
2024-02-11T10:38:29.239Z,17.79
2024-02-11T10:40:02.984Z,17.82
2024-02-11T10:41:39.191Z,17.80
2024-02-11T10:43:13.785Z,17.77
2024-02-11T10:44:50.769Z,17.88
2024-02-11T10:46:24.978Z,17.88
2024-02-11T10:47:58.342Z,17.90
2024-02-11T10:49:30.933Z,17.92
2024-02-11T10:51:13.909Z,17.93
2024-02-11T10:52:49.211Z,17.94
2024-02-11T10:54:22.977Z,17.97
2024-02-11T10:55:59.144Z,17.95
2024-02-11T10:57:36.208Z,17.95
2024-02-11T10:59:12.188Z,17.91
2024-02-11T11:00:51.472Z,17.98
2024-02-11T11:02:26.870Z,17.95
2024-02-11T11:04:03.126Z,18.06
2024-02-11T11:05:41.646Z,18.05
2024-02-11T11:07:18.725Z,18.01
2024-02-11T11:08:54.190Z,18.04
2024-02-11T11:10:30.531Z,18.02
2024-02-11T11:12:10.626Z,18.01
2024-02-11T11:13:43.446Z,17.98
2024-02-11T11:15:23.967Z,17.81
2024-02-11T11:17:04.256Z,17.73
2024-02-11T11:18:38.673Z,17.72
2024-02-11T11:20:14.304Z,17.79
2024-02-11T11:21:55.798Z,17.84
2024-02-11T11:23:28.752Z,17.81
2024-02-11T11:25:03.293Z,17.92
2024-02-11T11:26:36.563Z,17.90
2024-02-11T11:28:19.979Z,17.92
2024-02-11T11:29:54.134Z,17.92
2024-02-11T11:31:27.810Z,17.99
2024-02-11T11:33:05.670Z,17.94
2024-02-11T11:34:40.151Z,18.01
2024-02-11T11:36:24.192Z,17.95
2024-02-11T11:37:59.905Z,17.98
2024-02-11T11:39:33.341Z,17.94
2024-02-11T11:41:08.036Z,17.90
2024-02-11T11:42:41.402Z,17.88
2024-02-11T11:44:19.918Z,17.90
2024-02-11T11:45:58.206Z,17.92
2024-02-11T11:47:30.888Z,17.93
2024-02-11T11:49:05.796Z,17.92
2024-02-11T11:50:38.366Z,17.93
2024-02-11T11:52:11.931Z,17.89
2024-02-11T11:53:45.276Z,17.88
2024-02-11T11:55:19.058Z,17.78
2024-02-11T11:56:56.408Z,17.84
2024-02-11T11:58:32.092Z,17.83
2024-02-11T12:00:06.262Z,17.78
2024-02-11T12:02:05.778Z,17.82
2024-02-11T12:03:38.706Z,17.83
2024-02-11T12:05:14.930Z,17.86
2024-02-11T12:06:48.839Z,17.87
2024-02-11T12:08:22.571Z,17.79
2024-02-11T12:09:55.216Z,17.86
2024-02-11T12:11:28.909Z,17.86
2024-02-11T12:13:01.520Z,17.92
2024-02-11T12:14:38.390Z,17.96
2024-02-11T12:16:17.036Z,17.99
2024-02-11T12:17:52.010Z,17.99
2024-02-11T12:19:24.988Z,18.02
2024-02-11T12:46:01.265Z,18.28
2024-02-11T12:47:35.397Z,18.23
2024-02-11T12:49:09.534Z,18.24
2024-02-11T12:50:41.913Z,18.25
2024-02-11T12:52:15.250Z,18.22
2024-02-11T12:53:50.582Z,18.15
2024-02-11T12:55:26.110Z,18.22
2024-02-11T12:56:59.481Z,18.20
2024-02-11T12:58:31.874Z,18.17
2024-02-11T13:00:05.877Z,18.21
2024-02-11T13:01:38.966Z,18.21
2024-02-11T13:03:14.065Z,18.21
2024-02-11T13:04:47.429Z,18.04
2024-02-11T13:06:20.145Z,18.16
2024-02-11T13:07:55.185Z,18.13
2024-02-11T13:09:27.449Z,18.06
2024-02-11T13:11:01.694Z,18.07
2024-02-11T13:12:39.681Z,18.13
2024-02-11T13:14:13.654Z,18.14
2024-02-11T13:15:46.299Z,18.13
2024-02-11T13:17:19.820Z,18.13
2024-02-11T13:18:55.076Z,18.13
2024-02-11T13:20:29.080Z,18.14
2024-02-11T13:22:02.578Z,18.11
2024-02-11T13:23:37.436Z,18.11
2024-02-11T13:25:11.677Z,18.10
2024-02-11T13:26:43.860Z,18.06
2024-02-11T13:28:18.754Z,18.05
2024-02-11T13:29:51.236Z,18.05
2024-02-11T13:31:27.166Z,18.01
2024-02-11T13:32:59.658Z,17.97
2024-02-11T13:34:34.404Z,17.89
2024-02-11T13:36:11.733Z,17.96
2024-02-11T13:37:45.244Z,17.95
2024-02-11T13:39:19.383Z,17.90
2024-02-11T13:40:53.184Z,17.95
2024-02-11T13:42:26.366Z,17.95
2024-02-11T13:43:59.843Z,17.92
2024-02-11T13:45:32.196Z,17.95
2024-02-11T13:47:07.237Z,17.93
2024-02-11T13:48:42.293Z,17.90
2024-02-11T13:50:17.437Z,17.89
2024-02-11T13:51:49.928Z,17.92
2024-02-11T13:53:23.530Z,17.90
2024-02-11T13:54:56.048Z,17.90
2024-02-11T13:56:29.361Z,17.89
2024-02-11T13:58:03.818Z,17.90
2024-02-11T13:59:38.187Z,17.93
2024-02-11T14:01:11.891Z,17.90
2024-02-11T14:02:45.930Z,17.97
2024-02-11T14:04:18.452Z,18.00
2024-02-11T14:05:56.766Z,17.95
2024-02-11T14:07:29.568Z,17.83
2024-02-11T14:09:03.324Z,17.94
2024-02-11T14:10:36.771Z,17.86
2024-02-11T14:12:10.282Z,17.83
2024-02-11T14:13:43.615Z,17.83
2024-02-11T14:15:16.642Z,17.86
2024-02-11T14:16:50.174Z,17.86
2024-02-11T14:18:23.414Z,17.46
2024-02-11T14:19:57.048Z,17.71
2024-02-11T14:21:32.350Z,17.84
2024-02-11T14:23:06.175Z,17.72
2024-02-11T14:24:39.194Z,17.81
2024-02-11T14:26:13.116Z,17.81
2024-02-11T14:27:47.947Z,17.77
2024-02-11T14:29:21.518Z,17.78
2024-02-11T14:30:54.467Z,17.76
2024-02-11T14:32:28.536Z,17.69
2024-02-11T14:34:01.962Z,17.59
2024-02-11T14:35:39.690Z,17.74
2024-02-11T14:37:13.980Z,17.78
2024-02-11T14:38:47.350Z,17.75
2024-02-11T14:40:21.283Z,17.80
2024-02-11T14:41:56.295Z,17.82
2024-02-11T14:43:28.602Z,17.84
2024-02-11T14:45:02.668Z,17.86
2024-02-11T14:46:34.951Z,17.85
2024-02-11T14:48:11.393Z,17.92
2024-02-11T14:49:49.355Z,17.94
2024-02-11T14:51:22.853Z,17.97
2024-02-11T14:52:58.899Z,18.00
2024-02-11T14:54:32.860Z,18.02
2024-02-11T14:56:06.668Z,18.00
2024-02-11T14:57:40.176Z,17.99
2024-02-11T14:59:13.059Z,18.01
2024-02-11T15:00:46.356Z,17.93
2024-02-11T15:02:19.270Z,17.99
2024-02-11T15:03:54.533Z,17.94
2024-02-11T15:05:27.432Z,17.88
2024-02-11T15:07:00.893Z,17.89
2024-02-11T15:08:35.710Z,17.85
2024-02-11T15:10:09.869Z,17.85
2024-02-11T15:11:42.273Z,17.80
2024-02-11T15:13:18.382Z,17.75
2024-02-11T15:14:51.690Z,17.69
2024-02-11T15:16:25.204Z,17.60
2024-02-11T15:17:57.584Z,17.55
2024-02-11T15:19:33.269Z,17.53
2024-02-11T15:21:08.090Z,17.47
2024-02-11T15:22:43.781Z,17.24
2024-02-11T15:24:19.822Z,17.40
2024-02-11T15:25:52.923Z,17.39
2024-02-11T15:27:27.161Z,17.38
2024-02-11T15:29:00.632Z,17.23
2024-02-11T15:30:34.094Z,17.30
2024-02-11T15:32:08.918Z,17.28
2024-02-11T15:33:42.499Z,17.25
2024-02-11T15:35:15.101Z,17.22
2024-02-11T15:36:49.396Z,17.19
2024-02-11T15:38:24.340Z,17.15
2024-02-11T15:40:00.913Z,17.14
2024-02-11T15:41:34.245Z,17.14
2024-02-11T15:43:08.906Z,17.06
2024-02-11T15:44:47.368Z,17.14
2024-02-11T15:46:19.957Z,16.67
2024-02-11T15:47:53.704Z,17.12
2024-02-11T15:49:27.354Z,17.06
2024-02-11T15:51:00.607Z,16.94
2024-02-11T15:52:32.925Z,17.05
2024-02-11T15:54:06.807Z,17.07
2024-02-11T15:55:41.611Z,17.03
2024-02-11T15:57:15.240Z,17.02
2024-02-11T15:58:47.996Z,16.99
2024-02-11T16:00:22.220Z,16.96
2024-02-11T16:01:54.699Z,16.94
2024-02-11T16:03:28.360Z,16.84
2024-02-11T16:05:00.675Z,16.93
2024-02-11T16:06:34.466Z,16.91
2024-02-11T16:08:07.509Z,16.91
2024-02-11T16:09:41.060Z,16.91
2024-02-11T16:11:18.052Z,16.82
2024-02-11T16:12:50.413Z,16.86
2024-02-11T16:14:24.068Z,16.78
2024-02-11T16:15:57.827Z,16.66
2024-02-11T16:17:38.011Z,16.51
2024-02-11T16:19:11.560Z,16.42
2024-02-11T16:20:45.157Z,16.39
2024-02-11T16:22:17.554Z,16.32
2024-02-11T16:23:51.281Z,16.30
2024-02-11T16:25:23.670Z,16.26
2024-02-11T16:27:01.070Z,16.21
2024-02-11T16:28:34.459Z,16.17
2024-02-11T16:30:07.917Z,16.13
2024-02-11T16:31:44.455Z,16.10
2024-02-11T16:33:17.173Z,16.06
2024-02-11T16:34:51.174Z,16.06
2024-02-11T16:36:24.798Z,16.01
2024-02-11T16:37:58.285Z,15.89
2024-02-11T16:39:32.693Z,16.00
2024-02-11T16:41:05.189Z,15.95
2024-02-11T16:42:44.082Z,15.93
2024-02-11T16:44:16.878Z,15.94
2024-02-11T16:45:50.702Z,15.86
2024-02-11T16:47:23.154Z,15.89
2024-02-11T16:48:56.670Z,15.92
2024-02-11T16:50:29.035Z,15.87
2024-02-11T16:52:02.782Z,15.83
2024-02-11T16:53:35.271Z,15.77
2024-02-11T16:55:09.466Z,15.76
2024-02-11T16:56:44.055Z,15.77
2024-02-11T16:58:28.947Z,15.77
2024-02-11T17:00:02.303Z,15.45
2024-02-11T17:01:35.907Z,15.67
2024-02-11T17:03:09.505Z,15.73
2024-02-11T17:04:43.485Z,15.77
2024-02-11T17:06:16.317Z,15.77
2024-02-11T17:07:50.223Z,15.76
2024-02-11T17:09:22.869Z,15.75
2024-02-11T17:10:56.166Z,15.66
2024-02-11T17:12:28.438Z,15.72
2024-02-11T17:14:03.417Z,15.56
2024-02-11T17:15:45.446Z,15.71
2024-02-11T17:17:19.165Z,15.54
2024-02-11T17:18:51.997Z,15.68
2024-02-11T17:20:27.519Z,15.65
2024-02-11T17:22:00.275Z,15.59
2024-02-11T17:23:33.536Z,15.61
2024-02-11T17:25:07.898Z,15.62
2024-02-11T17:26:42.470Z,15.59
2024-02-11T17:28:15.927Z,15.55
2024-02-11T17:29:50.070Z,15.54
2024-02-11T17:31:25.813Z,15.51
2024-02-11T17:33:00.856Z,15.48
2024-02-11T17:34:35.197Z,15.45
2024-02-11T17:36:09.127Z,15.43
2024-02-11T17:37:42.412Z,15.44
2024-02-11T17:39:16.273Z,15.40
2024-02-11T17:40:49.934Z,15.45
2024-02-11T17:42:22.432Z,15.46
2024-02-11T17:43:57.707Z,15.48
2024-02-11T17:45:31.394Z,15.47
2024-02-11T17:47:04.783Z,15.49
2024-02-11T17:48:39.498Z,15.49
2024-02-11T17:50:16.032Z,15.49
2024-02-11T17:51:49.677Z,15.47
2024-02-11T17:53:27.735Z,15.41
2024-02-11T17:55:09.487Z,15.42
2024-02-11T17:56:44.479Z,15.38
2024-02-11T17:58:18.453Z,15.36
2024-02-11T17:59:53.583Z,15.36
2024-02-11T18:01:28.660Z,15.43
2024-02-11T18:03:03.090Z,15.45
2024-02-11T18:04:36.472Z,15.47
2024-02-11T18:06:10.742Z,15.44
2024-02-11T18:07:48.004Z,15.40
2024-02-11T18:09:20.452Z,15.41
2024-02-11T18:10:54.111Z,15.41
2024-02-11T18:12:26.620Z,15.42
2024-02-11T18:14:00.005Z,15.44
2024-02-11T18:15:33.301Z,15.46
2024-02-11T18:17:09.000Z,15.44
2024-02-11T18:18:41.482Z,15.44
2024-02-11T18:20:16.872Z,15.44
2024-02-11T18:21:53.151Z,15.45
2024-02-11T18:23:25.650Z,15.43
2024-02-11T18:24:59.217Z,15.47
2024-02-11T18:26:33.091Z,15.54
2024-02-11T18:28:08.583Z,15.55
2024-02-11T18:29:41.049Z,15.55
2024-02-11T18:31:15.412Z,15.60
2024-02-11T18:32:50.134Z,15.66
2024-02-11T18:34:24.004Z,15.54
2024-02-11T18:35:56.541Z,15.74
2024-02-11T18:37:30.625Z,15.77
2024-02-11T18:39:03.585Z,15.79
2024-02-11T18:40:36.809Z,15.81
2024-02-11T18:42:09.195Z,15.73
2024-02-11T18:43:44.382Z,15.75
2024-02-11T18:45:18.168Z,15.71
2024-02-11T18:46:51.884Z,15.67
2024-02-11T18:48:26.781Z,15.71
2024-02-11T18:49:59.639Z,15.71
2024-02-11T18:51:37.501Z,15.71
2024-02-11T18:53:09.898Z,15.69
2024-02-11T18:54:43.383Z,15.66
2024-02-11T18:56:15.848Z,15.65
2024-02-11T18:57:49.122Z,15.65
2024-02-11T18:59:21.772Z,15.63
2024-02-11T19:00:55.976Z,15.63
2024-02-11T19:02:29.757Z,15.61
2024-02-11T19:04:04.587Z,15.62
2024-02-11T19:05:38.158Z,15.60
2024-02-11T19:07:12.497Z,15.61
2024-02-11T19:08:44.761Z,15.57
2024-02-11T19:10:19.935Z,15.60
2024-02-11T19:11:54.683Z,15.66
2024-02-11T19:13:28.110Z,15.62
2024-02-11T19:15:00.850Z,15.65
2024-02-11T19:16:34.143Z,15.62
2024-02-11T19:18:09.434Z,15.63
2024-02-11T19:19:43.707Z,15.62
2024-02-11T19:21:16.965Z,15.61
2024-02-11T19:22:50.518Z,15.57
2024-02-11T19:24:22.877Z,15.57
2024-02-11T19:25:56.187Z,15.58
2024-02-11T19:27:28.522Z,15.56
2024-02-11T19:29:01.782Z,15.54
2024-02-11T19:30:34.078Z,15.36
2024-02-11T19:32:08.046Z,15.51
2024-02-11T19:33:40.421Z,15.49
2024-02-11T19:35:16.449Z,15.47
2024-02-11T19:36:50.400Z,15.37
2024-02-11T19:38:23.713Z,15.42
2024-02-11T19:39:56.037Z,15.42
2024-02-11T19:41:29.313Z,15.42
2024-02-11T19:43:04.904Z,15.41
2024-02-11T19:44:37.117Z,15.36
2024-02-11T19:46:12.383Z,15.40
2024-02-11T19:47:45.884Z,15.39
2024-02-11T19:49:20.183Z,15.39
2024-02-11T19:50:55.049Z,15.41
2024-02-11T19:52:27.521Z,15.38
2024-02-11T19:54:00.873Z,15.40
2024-02-11T19:55:33.377Z,15.41
2024-02-11T19:57:07.183Z,15.43
2024-02-11T19:58:40.076Z,15.43
2024-02-11T20:00:17.469Z,15.43
2024-02-11T20:01:50.417Z,15.43
2024-02-11T20:03:24.325Z,15.42
2024-02-11T20:04:56.888Z,15.41
2024-02-11T20:06:32.072Z,15.40
2024-02-11T20:08:06.854Z,15.47
2024-02-11T20:09:40.448Z,15.47
2024-02-11T20:11:13.274Z,15.46
2024-02-11T20:12:46.833Z,15.46
2024-02-11T20:14:20.591Z,15.37
2024-02-11T20:15:55.369Z,15.49
2024-02-11T20:17:29.148Z,15.52
2024-02-11T20:19:01.593Z,15.57
2024-02-11T20:20:36.544Z,15.59
2024-02-11T20:22:13.235Z,15.60
2024-02-11T20:23:47.338Z,15.65
2024-02-11T20:25:20.275Z,15.68
2024-02-11T20:26:53.758Z,15.65
2024-02-11T20:28:29.778Z,15.68
2024-02-11T20:30:02.373Z,15.69
2024-02-11T20:31:35.602Z,15.69
2024-02-11T20:33:10.942Z,15.72
2024-02-11T20:34:44.976Z,15.73
2024-02-11T20:36:17.249Z,15.72
2024-02-11T20:37:52.825Z,15.74
2024-02-11T20:39:25.281Z,15.70
2024-02-11T20:41:00.523Z,15.73
2024-02-11T20:42:34.181Z,15.73